Time;durP1;ratioP1;P1;durP2;ratioP2;P2;SDS_P1;SDS_P2;PMS_P1;PMS_P2;Temp;Humidity;BMP_temperature;BMP_pressure;BME280_temperature;BME280_humidity;BME280_pressure;Samples;Min_cycle;Max_cycle;Signal;HPM_P1;HPM_P2
2022/09/10 00:00:55;;;;;;;1.10;1.02;;;25.20;59.10;;;;;;5107230;28;20020;-62
2022/09/10 00:03:21;;;;;;;2.83;1.30;;;25.10;59.00;;;;;;5107207;28;20036;-62
2022/09/10 00:05:47;;;;;;;1.08;1.08;;;25.20;59.10;;;;;;5107139;28;20020;-62
2022/09/10 00:08:14;;;;;;;1.30;1.20;;;25.20;59.10;;;;;;5106897;28;20362;-61
2022/09/10 00:10:41;;;;;;;0.95;0.95;;;25.10;59.10;;;;;;5107059;28;20079;-61
2022/09/10 00:13:08;;;;;;;1.00;1.00;;;25.20;59.10;;;;;;5106977;28;20026;-59
2022/09/10 00:15:42;;;;;;;1.35;1.25;;;25.20;59.10;;;;;;5107224;28;20024;-61
2022/09/10 00:18:10;;;;;;;1.50;1.30;;;25.10;59.00;;;;;;5106867;28;20016;-61
2022/09/10 00:20:46;;;;;;;1.33;1.23;;;25.10;59.00;;;;;;5106872;28;20020;-61
2022/09/10 00:23:13;;;;;;;1.25;1.15;;;25.10;59.00;;;;;;5107087;28;20016;-62
2022/09/10 00:25:39;;;;;;;1.10;1.10;;;25.10;59.00;;;;;;5106757;28;20256;-60
2022/09/10 00:28:07;;;;;;;1.10;1.10;;;25.10;59.00;;;;;;5106655;28;20023;-62
2022/09/10 00:30:39;;;;;;;1.30;1.20;;;25.10;59.00;;;;;;5106896;28;20211;-62
2022/09/10 00:33:04;;;;;;;1.35;1.25;;;25.10;59.10;;;;;;5106699;28;20050;-62
2022/09/10 00:35:34;;;;;;;1.50;1.40;;;25.10;59.00;;;;;;5106605;28;20016;-61
2022/09/10 00:38:00;;;;;;;1.48;1.38;;;25.10;59.00;;;;;;5106453;28;20090;-62
2022/09/10 00:40:27;;;;;;;1.10;1.00;;;25.10;59.00;;;;;;5106515;28;20207;-62
2022/09/10 00:42:53;;;;;;;1.15;1.08;;;25.10;59.10;;;;;;5106400;28;20039;-62
2022/09/10 00:45:28;;;;;;;1.42;1.33;;;25.10;59.00;;;;;;5106377;28;20075;-62
2022/09/10 00:48:05;;;;;;;1.30;1.20;;;25.10;59.00;;;;;;5106413;28;20211;-62
2022/09/10 00:50:37;;;;;;;0.90;0.90;;;25.10;59.10;;;;;;5106371;28;20083;-62
2022/09/10 00:53:07;;;;;;;1.25;1.15;;;25.10;59.10;;;;;;5106321;28;20207;-62
2022/09/10 00:55:39;;;;;;;1.27;1.20;;;25.10;59.10;;;;;;5106237;28;20189;-61
2022/09/10 00:58:09;;;;;;;1.05;1.05;;;25.10;59.10;;;;;;5105135;28;20046;-61
2022/09/10 01:00:35;;;;;;;1.15;1.15;;;25.10;59.10;;;;;;5106068;28;20016;-61
2022/09/10 01:03:05;;;;;;;1.45;1.35;;;25.10;59.10;;;;;;5106055;28;20020;-61
2022/09/10 01:05:31;;;;;;;1.13;1.02;;;25.10;59.10;;;;;;5105995;28;20131;-62
2022/09/10 01:07:57;;;;;;;0.80;0.80;;;25.10;59.10;;;;;;5105821;28;20048;-61
2022/09/10 01:10:36;;;;;;;1.48;1.38;;;25.10;59.10;;;;;;5105980;28;20020;-62
2022/09/10 01:13:21;;;;;;;1.40;1.10;;;25.10;59.10;;;;;;5105883;28;20027;-61
2022/09/10 01:15:59;;;;;;;1.27;1.17;;;25.10;59.10;;;;;;5105829;28;20312;-62
2022/09/10 01:18:38;;;;;;;1.40;1.30;;;25.10;59.10;;;;;;5105674;28;20020;-61
2022/09/10 01:21:09;;;;;;;1.08;1.00;;;25.10;59.10;;;;;;5105788;28;20016;-61
2022/09/10 01:23:53;;;;;;;1.27;1.17;;;25.10;59.10;;;;;;5105668;28;20311;-61
2022/09/10 01:26:28;;;;;;;1.48;1.38;;;25.10;59.10;;;;;;5105659;28;20043;-61
2022/09/10 01:29:06;;;;;;;1.33;1.23;;;25.10;59.10;;;;;;5105615;28;20045;-61
2022/09/10 01:31:48;;;;;;;1.38;1.27;;;25.00;59.00;;;;;;5105531;28;20020;-62
2022/09/10 01:34:36;;;;;;;1.70;1.33;;;25.00;59.10;;;;;;5105496;28;20023;-62
2022/09/10 01:37:04;;;;;;;;;;;25.10;59.10;;;;;;5089753;28;20095;-62
2022/09/10 01:39:30;;;;;;;1.38;1.27;;;25.00;59.10;;;;;;5105694;28;19900;-61
2022/09/10 01:41:57;;;;;;;1.27;1.10;;;25.00;59.10;;;;;;5105328;28;20020;-61
2022/09/10 01:44:42;;;;;;;1.10;1.10;;;25.00;59.10;;;;;;5105177;28;20057;-62
2022/09/10 01:47:36;;;;;;;1.45;1.35;;;25.00;59.10;;;;;;5105533;28;20028;-61
2022/09/10 01:50:20;;;;;;;2.33;1.48;;;25.00;59.10;;;;;;5105142;28;20079;-61
2022/09/10 01:53:30;;;;;;;1.40;1.30;;;25.00;59.10;;;;;;5105152;28;20073;-62
2022/09/10 01:56:23;;;;;;;1.40;1.30;;;25.00;59.70;;;;;;5003459;28;20033;-61
2022/09/10 01:58:49;;;;;;;1.10;1.10;;;25.00;59.10;;;;;;5003356;28;20085;-61
2022/09/10 02:01:31;;;;;;;1.30;1.20;;;25.00;59.10;;;;;;5074227;28;20315;-61
2022/09/10 02:04:03;;;;;;;1.42;1.33;;;25.00;59.10;;;;;;5104845;28;20020;-61
2022/09/10 02:06:33;;;;;;;2.10;1.33;;;25.00;59.20;;;;;;5104846;28;20016;-61
2022/09/10 02:09:00;;;;;;;1.33;1.23;;;25.00;59.20;;;;;;5104460;28;20052;-61
2022/09/10 02:11:27;;;;;;;1.35;1.25;;;25.00;59.10;;;;;;5104750;28;20019;-62
2022/09/10 02:13:53;;;;;;;1.00;1.00;;;25.00;59.10;;;;;;5104692;28;20057;-62
2022/09/10 02:16:27;;;;;;;1.23;1.20;;;25.00;59.10;;;;;;5104552;28;20016;-62
2022/09/10 02:18:55;;;;;;;1.02;1.02;;;25.00;59.10;;;;;;5104526;28;20020;-62
2022/09/10 02:21:22;;;;;;;1.00;1.00;;;25.00;59.20;;;;;;5104587;28;20079;-62
2022/09/10 02:23:52;;;;;;;0.90;0.90;;;25.00;59.20;;;;;;5104757;28;20117;-62
2022/09/10 02:26:18;;;;;;;1.10;1.10;;;25.00;59.20;;;;;;5104469;28;20293;-61
2022/09/10 02:28:48;;;;;;;1.30;1.20;;;25.00;59.10;;;;;;5104644;28;20079;-62
2022/09/10 02:31:14;;;;;;;1.02;1.02;;;25.00;59.10;;;;;;5104382;28;20019;-62
2022/09/10 02:33:40;;;;;;;1.20;1.13;;;25.00;59.20;;;;;;5104361;28;20047;-62
2022/09/10 02:36:07;;;;;;;1.33;1.10;;;25.00;59.10;;;;;;5104238;28;20012;-61
2022/09/10 02:38:33;;;;;;;1.33;1.17;;;25.00;59.10;;;;;;5104178;28;20312;-62
2022/09/10 02:40:59;;;;;;;1.10;1.10;;;25.00;59.70;;;;;;5104477;28;20016;-62
2022/09/10 02:43:26;;;;;;;1.20;1.02;;;25.00;59.10;;;;;;5104196;28;20335;-61
2022/09/10 02:45:58;;;;;;;1.05;1.05;;;25.00;59.20;;;;;;5104114;28;20016;-61
2022/09/10 02:48:25;;;;;;;1.50;1.40;;;25.00;59.10;;;;;;5104122;28;20372;-62
2022/09/10 02:50:52;;;;;;;1.40;1.30;;;25.00;59.20;;;;;;5104032;28;20249;-61
2022/09/10 02:53:19;;;;;;;1.02;1.02;;;25.00;59.20;;;;;;5103991;28;20204;-62
2022/09/10 02:55:46;;;;;;;1.30;1.13;;;25.00;59.10;;;;;;5104020;28;20083;-61
2022/09/10 02:58:13;;;;;;;1.50;1.40;;;25.00;59.10;;;;;;5103843;28;20272;-62
2022/09/10 03:00:39;;;;;;;1.05;1.05;;;24.90;59.10;;;;;;5103939;28;20303;-62
2022/09/10 03:03:07;;;;;;;1.05;0.95;;;25.00;59.10;;;;;;5103849;28;20083;-62
2022/09/10 03:05:35;;;;;;;1.17;1.10;;;25.00;59.10;;;;;;5103863;28;20335;-62
2022/09/10 03:08:01;;;;;;;0.75;0.70;;;25.00;59.20;;;;;;5103641;28;20031;-61
2022/09/10 03:10:27;;;;;;;1.10;1.00;;;25.00;59.20;;;;;;5103812;28;20075;-62
2022/09/10 03:12:53;;;;;;;1.30;1.20;;;25.00;59.20;;;;;;5103772;28;20207;-62
2022/09/10 03:15:19;;;;;;;1.50;1.40;;;25.00;59.20;;;;;;5103767;28;20024;-62
2022/09/10 03:17:46;;;;;;;1.02;1.00;;;25.00;59.20;;;;;;5103630;28;20057;-62
2022/09/10 03:20:12;;;;;;;1.23;1.13;;;24.90;59.10;;;;;;5103643;28;20024;-62
2022/09/10 03:22:38;;;;;;;1.27;1.20;;;24.90;59.10;;;;;;5103253;28;20040;-62
2022/09/10 03:25:05;;;;;;;0.98;0.98;;;24.90;59.10;;;;;;5103624;28;20020;-62
2022/09/10 03:27:31;;;;;;;1.00;1.00;;;24.90;59.70;;;;;;5103634;28;20020;-62
2022/09/10 03:29:56;;;;;;;1.20;1.10;;;24.90;59.10;;;;;;5103630;28;20059;-62
2022/09/10 03:32:23;;;;;;;1.08;0.98;;;24.90;59.10;;;;;;5103573;28;20027;-61
2022/09/10 03:34:49;;;;;;;1.25;1.15;;;24.90;59.10;;;;;;5103537;28;20083;-62
2022/09/10 03:37:15;;;;;;;1.02;0.93;;;24.90;59.20;;;;;;5103426;28;20020;-61
2022/09/10 03:39:42;;;;;;;1.00;1.00;;;24.90;59.20;;;;;;5103489;28;20020;-62
2022/09/10 03:42:08;;;;;;;1.15;1.10;;;24.90;59.10;;;;;;5103513;28;20020;-63
2022/09/10 03:44:33;;;;;;;1.00;1.00;;;24.90;59.10;;;;;;5103715;28;20203;-62
2022/09/10 03:47:00;;;;;;;1.25;1.15;;;24.90;59.20;;;;;;5103393;28;20023;-62
2022/09/10 03:49:26;;;;;;;1.85;1.40;;;24.90;59.10;;;;;;5103435;28;20092;-62
2022/09/10 03:51:53;;;;;;;1.00;1.00;;;24.90;59.10;;;;;;5103388;28;20016;-63
2022/09/10 03:54:19;;;;;;;1.30;1.10;;;24.90;59.10;;;;;;5085321;28;20024;-62
2022/09/10 03:56:45;;;;;;;0.88;0.88;;;24.90;59.10;;;;;;5103269;28;20053;-61
2022/09/10 03:59:12;;;;;;;0.95;0.95;;;24.90;59.10;;;;;;5103298;28;20020;-62
2022/09/10 04:01:38;;;;;;;1.20;1.10;;;24.90;59.10;;;;;;5103500;28;20023;-62
2022/09/10 04:04:04;;;;;;;0.90;0.90;;;24.90;59.20;;;;;;5103289;28;20079;-63
2022/09/10 04:06:33;;;;;;;1.00;1.00;;;24.90;59.20;;;;;;5103460;28;20204;-62
2022/09/10 04:09:00;;;;;;;1.25;1.15;;;24.90;59.20;;;;;;5103119;28;20059;-61
2022/09/10 04:11:29;;;;;;;1.08;1.00;;;24.90;59.20;;;;;;5103220;28;20016;-62
2022/09/10 04:13:55;;;;;;;1.30;1.20;;;24.90;59.20;;;;;;5103179;28;20024;-62
2022/09/10 04:16:22;;;;;;;1.00;1.00;;;24.90;59.20;;;;;;5103151;28;20188;-62
2022/09/10 04:18:49;;;;;;;1.50;1.35;;;24.90;59.20;;;;;;5103067;28;20177;-62
2022/09/10 04:21:15;;;;;;;1.30;1.20;;;24.90;59.10;;;;;;5103146;28;20065;-63
2022/09/10 04:23:40;;;;;;;1.33;1.23;;;24.90;59.20;;;;;;5103152;28;20024;-62
2022/09/10 04:26:18;;;;;;;1.10;1.10;;;24.90;59.20;;;;;;5103088;28;20016;-62
2022/09/10 04:28:44;;;;;;;1.23;1.13;;;24.90;59.10;;;;;;5103093;28;20073;-61
2022/09/10 04:31:10;;;;;;;0.98;0.85;;;24.90;59.10;;;;;;5103048;28;20028;-62
2022/09/10 04:33:36;;;;;;;0.80;0.80;;;24.80;59.10;;;;;;5104456;28;20073;-62
2022/09/10 04:36:03;;;;;;;0.90;0.90;;;24.80;59.10;;;;;;5106603;28;20307;-62
2022/09/10 04:38:31;;;;;;;1.10;1.10;;;24.90;59.20;;;;;;5106474;28;20026;-61
2022/09/10 04:40:58;;;;;;;0.93;0.93;;;24.90;59.20;;;;;;5106484;28;20016;-62
2022/09/10 04:43:24;;;;;;;0.90;0.90;;;24.90;59.20;;;;;;5106468;28;20039;-63
2022/09/10 04:45:54;;;;;;;1.30;1.20;;;24.90;59.20;;;;;;5106456;28;20014;-63
2022/09/10 04:48:23;;;;;;;1.00;1.00;;;24.90;59.10;;;;;;5106398;28;20061;-62
2022/09/10 04:50:50;;;;;;;1.05;1.00;;;24.90;59.20;;;;;;5106292;28;20188;-62
2022/09/10 04:53:16;;;;;;;2.00;1.10;;;24.90;59.10;;;;;;5106308;28;20020;-62
2022/09/10 04:55:43;;;;;;;1.05;1.05;;;24.90;59.10;;;;;;5106232;28;20323;-62
2022/09/10 04:58:10;;;;;;;1.08;0.93;;;24.90;59.10;;;;;;5106172;28;20019;-62
2022/09/10 05:00:38;;;;;;;0.95;0.93;;;24.80;59.10;;;;;;5106152;28;20199;-63
2022/09/10 05:03:04;;;;;;;1.05;1.05;;;24.90;59.10;;;;;;5106097;28;20024;-62
2022/09/10 05:05:30;;;;;;;1.15;0.98;;;24.80;59.00;;;;;;5106068;28;20039;-62
2022/09/10 05:07:58;;;;;;;2.33;1.30;;;24.90;59.10;;;;;;5105838;28;20044;-62
2022/09/10 05:10:26;;;;;;;1.10;1.00;;;24.90;59.10;;;;;;5105943;28;20026;-62
2022/09/10 05:12:53;;;;;;;1.00;1.00;;;24.90;59.10;;;;;;5106280;28;20072;-62
2022/09/10 05:15:18;;;;;;;0.93;0.93;;;24.80;59.00;;;;;;5105831;28;20019;-62
2022/09/10 05:17:46;;;;;;;1.17;1.10;;;24.90;59.00;;;;;;5105735;28;20193;-63
2022/09/10 05:20:11;;;;;;;1.15;1.05;;;24.90;59.10;;;;;;5105830;28;20043;-62
2022/09/10 05:22:37;;;;;;;1.20;1.10;;;24.90;59.00;;;;;;5105710;28;20027;-62
2022/09/10 05:25:05;;;;;;;1.17;1.15;;;24.90;59.00;;;;;;5105625;28;20326;-63
2022/09/10 05:27:30;;;;;;;0.85;0.85;;;24.90;59.00;;;;;;5105668;28;20051;-63
2022/09/10 05:29:56;;;;;;;1.40;1.30;;;24.90;59.00;;;;;;5105548;28;20028;-63
2022/09/10 05:32:23;;;;;;;1.00;1.00;;;24.90;59.00;;;;;;5105495;28;20077;-63
2022/09/10 05:34:48;;;;;;;1.13;1.13;;;24.90;59.00;;;;;;5105475;28;20026;-62
2022/09/10 05:37:15;;;;;;;0.93;0.93;;;24.90;59.00;;;;;;5105389;28;20230;-62
2022/09/10 05:39:41;;;;;;;0.95;0.95;;;24.80;59.00;;;;;;5105327;28;20024;-62
2022/09/10 05:42:07;;;;;;;0.98;0.98;;;24.90;59.00;;;;;;5105335;28;20022;-62
2022/09/10 05:44:33;;;;;;;1.05;0.95;;;24.90;59.10;;;;;;5104835;28;20016;-63
2022/09/10 05:46:58;;;;;;;1.00;1.00;;;24.80;59.00;;;;;;5105259;28;20020;-63
2022/09/10 05:49:25;;;;;;;1.20;1.10;;;24.80;59.00;;;;;;5105184;28;20027;-63
2022/09/10 05:51:50;;;;;;;1.38;1.27;;;24.90;59.00;;;;;;5105143;28;20075;-63
2022/09/10 05:54:16;;;;;;;1.00;1.00;;;24.80;59.00;;;;;;5105053;28;20012;-62
2022/09/10 05:56:42;;;;;;;1.30;1.20;;;24.80;59.00;;;;;;5104977;28;20016;-62
2022/09/10 05:59:09;;;;;;;1.33;1.00;;;24.80;59.00;;;;;;5104999;28;20062;-62
2022/09/10 06:01:35;;;;;;;1.20;1.10;;;24.80;59.60;;;;;;5104937;28;20022;-62
2022/09/10 06:04:01;;;;;;;1.00;1.00;;;24.90;59.00;;;;;;5104892;28;20012;-62
2022/09/10 06:06:27;;;;;;;0.82;0.82;;;24.80;59.00;;;;;;5104862;28;20057;-62
2022/09/10 06:08:54;;;;;;;0.80;0.80;;;24.90;59.00;;;;;;5104634;28;20043;-62
2022/09/10 06:11:21;;;;;;;1.08;1.00;;;24.80;58.90;;;;;;5104782;28;20031;-63
2022/09/10 06:13:47;;;;;;;0.95;0.93;;;24.80;58.90;;;;;;5104770;28;20047;-63
2022/09/10 06:16:14;;;;;;;0.90;0.90;;;24.90;59.00;;;;;;5086611;28;20024;-62
2022/09/10 06:18:41;;;;;;;1.17;1.17;;;24.90;59.00;;;;;;5104558;28;20024;-62
2022/09/10 06:21:26;;;;;;;1.00;1.00;;;24.90;59.00;;;;;;5104658;28;20012;-62
2022/09/10 06:23:55;;;;;;;0.85;0.85;;;24.90;58.90;;;;;;5104847;28;20016;-62
2022/09/10 06:26:21;;;;;;;1.40;1.30;;;24.80;59.00;;;;;;5104495;28;20241;-62
2022/09/10 06:28:48;;;;;;;0.95;0.95;;;24.90;59.00;;;;;;5104499;28;20346;-63
2022/09/10 06:31:16;;;;;;;1.20;1.10;;;24.90;58.90;;;;;;5104417;28;20024;-62
2022/09/10 06:33:43;;;;;;;;;;;24.90;59.00;;;;;;5104780;28;20020;-62
2022/09/10 06:36:10;;;;;;;1.02;1.02;;;24.90;58.90;;;;;;5104354;28;19937;-62
2022/09/10 06:38:35;;;;;;;1.20;1.10;;;24.90;59.00;;;;;;5104762;28;20030;-62
2022/09/10 06:41:04;;;;;;;1.00;1.00;;;24.80;58.90;;;;;;5104252;28;20036;-61
2022/09/10 06:43:35;;;;;;;1.02;1.02;;;24.90;58.90;;;;;;5104234;28;20019;-62
2022/09/10 06:46:08;;;;;;;0.95;0.95;;;24.90;58.90;;;;;;5104191;28;20016;-61
2022/09/10 06:48:41;;;;;;;0.90;0.90;;;24.80;58.80;;;;;;5104176;28;20067;-61
2022/09/10 06:51:08;;;;;;;0.88;0.88;;;24.90;58.90;;;;;;5104146;28;20024;-62
2022/09/10 06:53:36;;;;;;;1.00;1.00;;;24.90;58.90;;;;;;5104094;28;20073;-62
2022/09/10 06:56:04;;;;;;;1.10;1.10;;;24.90;58.90;;;;;;5103256;28;20020;-61
2022/09/10 06:58:33;;;;;;;0.80;0.80;;;24.90;58.90;;;;;;5085841;28;20024;-62
2022/09/10 07:01:06;;;;;;;2.25;1.00;;;24.90;58.90;;;;;;5103911;28;20237;-62
2022/09/10 07:03:32;;;;;;;0.88;0.88;;;24.90;58.90;;;;;;5103987;28;20012;-62
2022/09/10 07:06:03;;;;;;;0.98;0.93;;;24.90;58.90;;;;;;5103844;28;20023;-62
2022/09/10 07:08:28;;;;;;;0.85;0.85;;;24.90;58.90;;;;;;5103760;28;20382;-62
2022/09/10 07:11:04;;;;;;;1.30;1.20;;;24.90;58.90;;;;;;5103843;28;20047;-62
2022/09/10 07:13:34;;;;;;;1.20;1.10;;;24.90;58.80;;;;;;5103713;28;20244;-62
2022/09/10 07:16:00;;;;;;;1.00;1.00;;;24.90;58.70;;;;;;5085693;28;20024;-61
2022/09/10 07:18:27;;;;;;;0.93;0.93;;;24.90;58.70;;;;;;5103965;28;20057;-61
2022/09/10 07:20:53;;;;;;;1.00;1.00;;;24.90;58.70;;;;;;5103684;28;20027;-62
2022/09/10 07:23:21;;;;;;;1.02;1.02;;;24.90;58.70;;;;;;5103636;28;20020;-61
2022/09/10 07:25:47;;;;;;;;;;;24.90;58.70;;;;;;5104065;28;20061;-62
2022/09/10 07:28:17;;;;;;;0.95;0.95;;;24.90;58.70;;;;;;5103588;28;19939;-61
2022/09/10 07:30:43;;;;;;;0.90;0.90;;;24.90;58.80;;;;;;5103554;28;20024;-61
2022/09/10 07:33:12;;;;;;;1.00;1.00;;;25.00;58.80;;;;;;5103576;28;20065;-61
2022/09/10 07:35:38;;;;;;;1.13;1.05;;;25.00;58.70;;;;;;5103548;28;20020;-61
2022/09/10 07:38:05;;;;;;;0.80;0.80;;;25.00;58.60;;;;;;5085426;28;20023;-62
2022/09/10 07:40:32;;;;;;;1.30;1.20;;;25.00;58.60;;;;;;5103517;28;20020;-62
2022/09/10 07:42:59;;;;;;;1.08;1.02;;;25.00;58.60;;;;;;5103437;28;20038;-62
2022/09/10 07:45:27;;;;;;;0.80;0.80;;;25.00;58.60;;;;;;5103416;28;20322;-62
2022/09/10 07:47:53;;;;;;;0.90;0.90;;;25.00;58.60;;;;;;5103477;28;20020;-62
2022/09/10 07:50:18;;;;;;;1.30;1.10;;;25.00;58.60;;;;;;5103419;28;20027;-61
2022/09/10 07:52:44;;;;;;;0.90;0.90;;;25.00;58.60;;;;;;5103369;28;20016;-61
2022/09/10 07:55:11;;;;;;;0.80;0.80;;;25.00;58.60;;;;;;5103387;28;20020;-61
2022/09/10 07:57:38;;;;;;;1.00;1.00;;;25.00;58.50;;;;;;5103313;28;20020;-62
2022/09/10 08:00:13;;;;;;;1.10;1.10;;;25.00;58.40;;;;;;5103339;28;20323;-63
2022/09/10 08:02:43;;;;;;;0.98;0.98;;;25.00;58.40;;;;;;5103331;28;20241;-62
2022/09/10 08:05:10;;;;;;;1.52;1.15;;;25.10;59.10;;;;;;5103326;28;20071;-62
2022/09/10 08:07:40;;;;;;;0.73;0.73;;;25.00;58.40;;;;;;5104681;28;20044;-61
2022/09/10 08:10:08;;;;;;;0.82;0.82;;;25.00;58.40;;;;;;5089087;28;20031;-62
2022/09/10 08:12:38;;;;;;;1.00;1.00;;;25.00;58.50;;;;;;5088993;28;20024;-62
2022/09/10 08:15:06;;;;;;;0.75;0.75;;;25.00;58.50;;;;;;5107068;28;20023;-62
2022/09/10 08:17:33;;;;;;;1.00;1.00;;;25.00;58.60;;;;;;5106924;28;20047;-62
2022/09/10 08:20:00;;;;;;;0.85;0.85;;;25.00;58.60;;;;;;5106959;28;20039;-62
2022/09/10 08:22:25;;;;;;;0.82;0.82;;;25.00;58.60;;;;;;5088818;28;20299;-61
2022/09/10 08:24:52;;;;;;;0.93;0.93;;;25.00;58.50;;;;;;5106854;28;20008;-62
2022/09/10 08:27:18;;;;;;;1.40;1.13;;;25.00;58.40;;;;;;5107435;28;20024;-62
2022/09/10 08:29:43;;;;;;;1.00;1.00;;;25.00;58.50;;;;;;5106780;28;20073;-62
2022/09/10 08:32:11;;;;;;;0.98;0.98;;;25.00;58.50;;;;;;5106699;28;20104;-62
2022/09/10 08:34:38;;;;;;;1.10;1.00;;;25.00;58.50;;;;;;5106702;28;20330;-62
2022/09/10 08:37:04;;;;;;;0.95;0.95;;;25.00;58.50;;;;;;5106569;28;20035;-62
2022/09/10 08:39:30;;;;;;;0.95;0.95;;;25.00;59.10;;;;;;5106569;28;20352;-62
2022/09/10 08:42:08;;;;;;;1.10;1.10;;;25.00;58.50;;;;;;5106497;28;20028;-61
2022/09/10 08:44:47;;;;;;;;;;;25.00;59.10;;;;;;5106990;28;20016;-62
2022/09/10 08:47:25;;;;;;;1.02;0.93;;;25.00;58.50;;;;;;5106496;28;19900;-62
2022/09/10 08:49:56;;;;;;;0.90;0.90;;;25.00;58.60;;;;;;5106401;28;20056;-62
2022/09/10 08:52:40;;;;;;;1.33;1.23;;;25.00;58.50;;;;;;5106311;28;20383;-63
2022/09/10 08:55:18;;;;;;;0.93;0.93;;;25.00;58.50;;;;;;5106316;28;20083;-62
2022/09/10 08:58:02;;;;;;;1.13;1.10;;;25.10;58.50;;;;;;5106152;28;20024;-62
2022/09/10 09:00:35;;;;;;;1.85;1.00;;;25.00;58.40;;;;;;5106473;28;20027;-62
2022/09/10 09:03:13;;;;;;;0.80;0.80;;;25.10;58.50;;;;;;5106154;28;20020;-61
2022/09/10 09:05:53;;;;;;;1.00;1.00;;;25.00;58.40;;;;;;5106102;28;20022;-62
2022/09/10 09:08:26;;;;;;;1.15;1.08;;;25.00;58.40;;;;;;5105932;28;20046;-62
2022/09/10 09:11:03;;;;;;;0.98;0.98;;;25.10;58.50;;;;;;5105974;28;20019;-62
2022/09/10 09:13:58;;;;;;;0.80;0.80;;;25.00;58.40;;;;;;5105911;28;20312;-62
2022/09/10 09:16:36;;;;;;;1.20;1.10;;;25.00;58.30;;;;;;5103242;28;20036;-62
2022/09/10 09:19:30;;;;;;;0.90;0.88;;;25.00;58.40;;;;;;5104885;28;20024;-62
2022/09/10 09:22:21;;;;;;;0.90;0.90;;;25.10;58.40;;;;;;5105782;28;20019;-62
2022/09/10 09:25:08;;;;;;;0.75;0.75;;;25.10;58.50;;;;;;5088104;28;20028;-62
2022/09/10 09:27:39;;;;;;;1.13;1.08;;;25.00;58.50;;;;;;5105763;28;20189;-62
2022/09/10 09:30:15;;;;;;;1.17;1.08;;;25.10;58.50;;;;;;5105620;28;20197;-62
2022/09/10 09:32:44;;;;;;;0.77;0.77;;;25.10;58.50;;;;;;5105593;28;20020;-62
2022/09/10 09:35:26;;;;;;;0.95;0.95;;;25.10;58.50;;;;;;5105480;28;20016;-62
2022/09/10 09:38:02;;;;;;;0.95;0.95;;;25.10;58.50;;;;;;5105422;28;20065;-62
2022/09/10 09:40:36;;;;;;;1.00;1.00;;;25.10;58.40;;;;;;5105436;28;20012;-62
2022/09/10 09:43:12;;;;;;;1.25;1.15;;;25.10;58.40;;;;;;5105409;28;20047;-62
2022/09/10 09:45:43;;;;;;;0.90;0.90;;;25.10;58.40;;;;;;5105343;28;20023;-63
2022/09/10 09:48:14;;;;;;;1.27;1.17;;;25.10;58.40;;;;;;5105289;28;20015;-63
2022/09/10 09:50:46;;;;;;;1.02;1.00;;;25.10;58.40;;;;;;5105193;28;20019;-63
2022/09/10 09:53:24;;;;;;;0.65;0.65;;;25.20;58.40;;;;;;5105213;28;20026;-62
2022/09/10 09:56:18;;;;;;;1.10;1.02;;;25.20;58.40;;;;;;5105476;28;20050;-62
2022/09/10 09:58:49;;;;;;;0.93;0.93;;;25.20;58.40;;;;;;5105033;28;20082;-62
2022/09/10 10:01:21;;;;;;;1.08;1.00;;;25.20;58.40;;;;;;5105015;28;20319;-62
2022/09/10 10:03:51;;;;;;;1.00;1.00;;;25.20;58.40;;;;;;5105002;28;20019;-62
2022/09/10 10:06:23;;;;;;;0.88;0.88;;;25.20;58.40;;;;;;5104957;28;20316;-61
2022/09/10 10:09:01;;;;;;;0.82;0.82;;;25.20;58.40;;;;;;5104798;28;20051;-61
2022/09/10 10:11:49;;;;;;;0.80;0.77;;;25.20;58.40;;;;;;5104904;28;20020;-62
2022/09/10 10:14:19;;;;;;;0.70;0.70;;;25.20;58.40;;;;;;5104765;28;20016;-62
2022/09/10 10:16:47;;;;;;;1.00;1.00;;;25.20;58.40;;;;;;5104747;28;20027;-62
2022/09/10 10:19:32;;;;;;;0.90;0.90;;;25.20;58.40;;;;;;5104612;28;20019;-61
2022/09/10 10:22:31;;;;;;;0.90;0.90;;;25.20;58.40;;;;;;5104650;28;20207;-61
2022/09/10 10:24:59;;;;;;;1.05;1.00;;;25.20;58.40;;;;;;5049446;28;20036;-62
2022/09/10 10:27:36;;;;;;;2.00;1.00;;;25.20;58.40;;;;;;5086419;28;20208;-62
2022/09/10 10:30:22;;;;;;;0.90;0.90;;;25.20;58.40;;;;;;5104437;28;20020;-62
2022/09/10 10:32:56;;;;;;;0.80;0.80;;;25.20;58.30;;;;;;5104742;28;20085;-61
2022/09/10 10:35:44;;;;;;;1.00;0.90;;;25.30;58.40;;;;;;5104386;28;20083;-62
2022/09/10 10:38:26;;;;;;;1.00;1.00;;;25.30;58.30;;;;;;5104568;28;20024;-62
2022/09/10 10:41:04;;;;;;;0.80;0.80;;;25.20;58.30;;;;;;5104325;28;20188;-62
2022/09/10 10:43:29;;;;;;;1.17;1.08;;;25.30;58.30;;;;;;5104573;28;20026;-62
2022/09/10 10:46:09;;;;;;;0.80;0.80;;;25.30;58.20;;;;;;5104121;28;20008;-61
2022/09/10 10:48:47;;;;;;;1.08;1.00;;;25.30;58.30;;;;;;5104145;28;20031;-61
2022/09/10 10:51:51;;;;;;;0.85;0.85;;;25.20;58.30;;;;;;5104150;28;20016;-62
2022/09/10 10:54:39;;;;;;;0.95;0.95;;;25.30;58.30;;;;;;5104096;28;20360;-62
2022/09/10 10:57:08;;;;;;;;;;;25.20;58.30;;;;;;5104448;28;20322;-62
2022/09/10 11:00:06;;;;;;;0.85;0.85;;;25.20;58.40;;;;;;5086157;28;20083;-61
2022/09/10 11:02:51;;;;;;;0.70;0.70;;;25.20;58.50;;;;;;5103960;28;20084;-61
2022/09/10 11:05:17;;;;;;;0.90;0.90;;;25.20;58.50;;;;;;5104009;28;20043;-61
2022/09/10 11:07:44;;;;;;;0.93;0.93;;;25.20;58.40;;;;;;5103645;28;20024;-61
2022/09/10 11:10:30;;;;;;;0.80;0.80;;;25.20;58.40;;;;;;5103455;28;20061;-62
2022/09/10 11:13:26;;;;;;;0.70;0.70;;;25.30;58.30;;;;;;5103793;28;20044;-61
2022/09/10 11:16:04;;;;;;;0.98;0.98;;;25.20;58.40;;;;;;5098688;28;20320;-62
2022/09/10 11:19:01;;;;;;;0.90;0.90;;;25.30;58.50;;;;;;5103687;28;20015;-61
2022/09/10 11:21:30;;;;;;;0.70;0.70;;;25.30;58.40;;;;;;5103777;28;20035;-62
2022/09/10 11:24:02;;;;;;;0.88;0.88;;;25.30;58.30;;;;;;5103665;28;20008;-62
2022/09/10 11:26:41;;;;;;;1.10;1.10;;;25.30;58.40;;;;;;5103697;28;20015;-61
2022/09/10 11:29:24;;;;;;;0.70;0.70;;;25.30;58.30;;;;;;5103635;28;20020;-62
2022/09/10 11:32:06;;;;;;;0.68;0.68;;;25.30;58.30;;;;;;5103611;28;20087;-61
2022/09/10 11:34:40;;;;;;;0.70;0.70;;;25.30;58.30;;;;;;5103927;28;20031;-62
2022/09/10 11:37:43;;;;;;;0.80;0.80;;;25.30;58.20;;;;;;5103792;28;20024;-62
2022/09/10 11:40:21;;;;;;;1.45;0.80;;;25.40;58.30;;;;;;5068568;28;20030;-61
2022/09/10 11:42:52;;;;;;;1.13;0.98;;;25.30;58.30;;;;;;5105523;28;20042;-61
2022/09/10 11:45:57;;;;;;;0.80;0.80;;;25.40;58.30;;;;;;5107698;28;20016;-62
2022/09/10 11:48:31;;;;;;;0.80;0.80;;;25.40;58.20;;;;;;5107608;28;20307;-61
2022/09/10 11:51:16;;;;;;;1.00;1.00;;;25.40;58.20;;;;;;5107579;28;20020;-61
2022/09/10 11:53:43;;;;;;;0.80;0.80;;;25.40;58.10;;;;;;5107420;28;20035;-61
2022/09/10 11:56:25;;;;;;;0.77;0.77;;;25.40;58.10;;;;;;5107449;28;20046;-62
2022/09/10 11:59:22;;;;;;;0.90;0.90;;;25.40;58.10;;;;;;5107342;28;20047;-63
2022/09/10 12:02:52;;;;;;;0.90;0.90;;;25.40;58.30;;;;;;5107363;28;20053;-62
2022/09/10 12:05:22;;;;;;;0.80;0.80;;;25.40;58.20;;;;;;5005676;28;20026;-62
2022/09/10 12:08:16;;;;;;;1.00;0.95;;;25.40;58.20;;;;;;5107312;28;20244;-62
2022/09/10 12:10:56;;;;;;;0.73;0.73;;;25.40;58.30;;;;;;5107204;28;20028;-62
2022/09/10 12:13:22;;;;;;;0.80;0.80;;;25.40;58.20;;;;;;5107167;28;20117;-62
2022/09/10 12:15:54;;;;;;;1.10;0.95;;;25.50;58.20;;;;;;5107027;28;20028;-62
2022/09/10 12:18:27;;;;;;;1.00;1.00;;;25.50;58.10;;;;;;5106993;28;20024;-62
2022/09/10 12:21:01;;;;;;;0.90;0.90;;;25.50;58.00;;;;;;5106974;28;20303;-62
2022/09/10 12:23:35;;;;;;;0.90;0.90;;;25.50;58.00;;;;;;5088868;28;20099;-62
2022/09/10 12:26:11;;;;;;;0.85;0.85;;;25.60;58.00;;;;;;5106933;28;20307;-62
2022/09/10 12:29:00;;;;;;;0.90;0.73;;;25.60;58.00;;;;;;5106835;28;20024;-62
2022/09/10 12:31:26;;;;;;;0.85;0.85;;;25.60;58.00;;;;;;5106156;28;20363;-63
2022/09/10 12:33:53;;;;;;;0.90;0.90;;;25.60;57.90;;;;;;5106735;28;20035;-62
2022/09/10 12:36:24;;;;;;;0.95;0.95;;;25.60;58.00;;;;;;5106679;28;20024;-62
2022/09/10 12:39:23;;;;;;;1.02;1.02;;;25.60;57.90;;;;;;5106576;28;20016;-62
2022/09/10 12:41:48;;;;;;;0.90;0.90;;;25.60;57.90;;;;;;5106609;28;20049;-62
2022/09/10 12:44:33;;;;;;;0.88;0.88;;;25.70;57.90;;;;;;5106571;28;20020;-62
2022/09/10 12:47:17;;;;;;;0.98;0.93;;;25.70;57.80;;;;;;5106464;28;20016;-62
2022/09/10 12:49:56;;;;;;;0.70;0.70;;;25.70;57.80;;;;;;5106421;28;20020;-62
2022/09/10 12:52:33;;;;;;;0.90;0.90;;;25.60;57.90;;;;;;5106429;28;20100;-61
2022/09/10 12:55:21;;;;;;;0.80;0.80;;;25.70;58.00;;;;;;5105082;28;20062;-62
2022/09/10 12:57:52;;;;;;;0.77;0.77;;;25.80;57.80;;;;;;5106237;28;20326;-60
2022/09/10 13:00:29;;;;;;;0.70;0.70;;;25.80;57.70;;;;;;5106213;28;20020;-62
2022/09/10 13:03:10;;;;;;;0.90;0.90;;;25.80;57.70;;;;;;5106174;28;20057;-61
2022/09/10 13:05:47;;;;;;;0.82;0.82;;;25.90;57.60;;;;;;5106451;28;20249;-62
2022/09/10 13:08:17;;;;;;;0.80;0.80;;;26.00;57.30;;;;;;5105918;28;20047;-60
2022/09/10 13:10:45;;;;;;;1.00;1.00;;;26.00;57.10;;;;;;5106027;28;20026;-61
2022/09/10 13:13:57;;;;;;;1.13;1.02;;;26.10;56.80;;;;;;5105982;28;20031;-60